sensor_id;sensor_type;location;lat;lon;timestamp;pressure;altitude;pressure_sealevel;temperature;humidity
84224;BME280;74353;51.208;0.304;2024-01-30T00:01:08;102091.63;;;11.25;52.30
84224;BME280;74353;51.208;0.304;2024-01-30T00:03:33;102087.41;;;11.45;51.97
84224;BME280;74353;51.208;0.304;2024-01-30T00:06:03;102083.09;;;11.59;52.23
84224;BME280;74353;51.208;0.304;2024-01-30T00:08:29;102083.47;;;11.31;52.30
84224;BME280;74353;51.208;0.304;2024-01-30T00:10:54;102080.64;;;11.37;52.33
84224;BME280;74353;51.208;0.304;2024-01-30T00:13:19;102079.44;;;11.44;52.16
84224;BME280;74353;51.208;0.304;2024-01-30T00:15:47;102075.01;;;11.42;52.27
84224;BME280;74353;51.208;0.304;2024-01-30T00:18:13;102078.95;;;11.53;52.07
84224;BME280;74353;51.208;0.304;2024-01-30T00:20:40;102072.99;;;11.41;52.31
84224;BME280;74353;51.208;0.304;2024-01-30T00:23:08;102065.50;;;11.49;52.13
84224;BME280;74353;51.208;0.304;2024-01-30T00:25:34;102059.66;;;11.42;52.28
84224;BME280;74353;51.208;0.304;2024-01-30T00:28:00;102057.73;;;11.46;52.29
84224;BME280;74353;51.208;0.304;2024-01-30T00:30:27;102057.25;;;11.54;52.05
84224;BME280;74353;51.208;0.304;2024-01-30T00:32:54;102056.89;;;11.69;51.89
84224;BME280;74353;51.208;0.304;2024-01-30T00:35:21;102063.01;;;11.45;52.54
84224;BME280;74353;51.208;0.304;2024-01-30T00:37:47;102058.29;;;11.75;51.97
84224;BME280;74353;51.208;0.304;2024-01-30T00:40:15;102060.51;;;12.14;52.12
84224;BME280;74353;51.208;0.304;2024-01-30T00:42:41;102060.25;;;11.56;52.52
84224;BME280;74353;51.208;0.304;2024-01-30T00:45:13;102062.62;;;11.67;52.22
84224;BME280;74353;51.208;0.304;2024-01-30T00:47:34;102059.61;;;11.71;52.28
84224;BME280;74353;51.208;0.304;2024-01-30T00:50:00;102059.87;;;11.51;52.10
84224;BME280;74353;51.208;0.304;2024-01-30T00:52:26;102054.30;;;11.80;51.99
84224;BME280;74353;51.208;0.304;2024-01-30T00:54:51;102056.50;;;11.72;52.18
84224;BME280;74353;51.208;0.304;2024-01-30T00:57:17;102049.58;;;11.90;51.87
84224;BME280;74353;51.208;0.304;2024-01-30T00:59:42;102051.41;;;11.98;51.67
84224;BME280;74353;51.208;0.304;2024-01-30T01:02:09;102048.15;;;11.87;52.12
84224;BME280;74353;51.208;0.304;2024-01-30T01:04:36;102046.74;;;11.82;51.99
84224;BME280;74353;51.208;0.304;2024-01-30T01:07:03;102043.26;;;11.91;52.02
84224;BME280;74353;51.208;0.304;2024-01-30T01:09:28;102047.57;;;11.50;52.00
84224;BME280;74353;51.208;0.304;2024-01-30T01:11:54;102045.57;;;12.05;51.96
84224;BME280;74353;51.208;0.304;2024-01-30T01:14:21;102040.44;;;11.90;52.28
84224;BME280;74353;51.208;0.304;2024-01-30T01:16:50;102044.66;;;11.74;52.32
84224;BME280;74353;51.208;0.304;2024-01-30T01:19:18;102043.78;;;12.08;52.10
84224;BME280;74353;51.208;0.304;2024-01-30T01:21:44;102047.86;;;12.10;52.13
84224;BME280;74353;51.208;0.304;2024-01-30T01:24:10;102041.32;;;12.05;52.25
84224;BME280;74353;51.208;0.304;2024-01-30T01:26:36;102044.40;;;11.88;52.18
84224;BME280;74353;51.208;0.304;2024-01-30T01:29:03;102031.37;;;11.95;52.01
84224;BME280;74353;51.208;0.304;2024-01-30T01:31:29;102038.00;;;11.97;52.54
84224;BME280;74353;51.208;0.304;2024-01-30T01:33:55;102032.92;;;12.32;51.87
84224;BME280;74353;51.208;0.304;2024-01-30T01:36:21;102048.47;;;12.25;51.92
84224;BME280;74353;51.208;0.304;2024-01-30T01:38:51;102039.56;;;11.95;51.55
84224;BME280;74353;51.208;0.304;2024-01-30T01:41:16;102035.94;;;12.04;51.86
84224;BME280;74353;51.208;0.304;2024-01-30T01:43:47;102037.60;;;12.13;52.07
84224;BME280;74353;51.208;0.304;2024-01-30T01:46:08;102049.09;;;12.31;51.76
84224;BME280;74353;51.208;0.304;2024-01-30T01:48:33;102047.34;;;12.15;51.54
84224;BME280;74353;51.208;0.304;2024-01-30T01:51:01;102051.76;;;12.13;51.41
84224;BME280;74353;51.208;0.304;2024-01-30T01:53:26;102038.30;;;12.07;51.28
84224;BME280;74353;51.208;0.304;2024-01-30T01:55:54;102030.30;;;12.02;51.27
84224;BME280;74353;51.208;0.304;2024-01-30T01:58:21;102027.65;;;12.32;50.91
84224;BME280;74353;51.208;0.304;2024-01-30T02:00:45;102037.82;;;11.96;51.09
84224;BME280;74353;51.208;0.304;2024-01-30T02:03:10;102038.54;;;12.08;50.84
84224;BME280;74353;51.208;0.304;2024-01-30T02:05:38;102038.45;;;12.15;50.62
84224;BME280;74353;51.208;0.304;2024-01-30T02:08:05;102038.66;;;12.15;50.56
84224;BME280;74353;51.208;0.304;2024-01-30T02:10:30;102035.30;;;12.42;50.19
84224;BME280;74353;51.208;0.304;2024-01-30T02:12:56;102035.52;;;11.88;50.06
84224;BME280;74353;51.208;0.304;2024-01-30T02:15:21;102033.58;;;12.37;49.80
84224;BME280;74353;51.208;0.304;2024-01-30T02:17:47;102020.54;;;12.30;49.73
84224;BME280;74353;51.208;0.304;2024-01-30T02:20:13;102009.17;;;12.20;49.80
84224;BME280;74353;51.208;0.304;2024-01-30T02:22:40;102024.22;;;12.09;49.25
84224;BME280;74353;51.208;0.304;2024-01-30T02:25:06;102023.88;;;12.15;49.43
84224;BME280;74353;51.208;0.304;2024-01-30T02:27:34;102024.84;;;12.27;49.11
84224;BME280;74353;51.208;0.304;2024-01-30T02:30:04;102023.59;;;11.93;49.11
84224;BME280;74353;51.208;0.304;2024-01-30T02:32:28;102031.92;;;12.17;49.07
84224;BME280;74353;51.208;0.304;2024-01-30T02:34:54;102026.31;;;12.18;48.86
84224;BME280;74353;51.208;0.304;2024-01-30T02:37:19;102041.96;;;12.14;48.84
84224;BME280;74353;51.208;0.304;2024-01-30T02:39:49;102034.69;;;11.95;48.61
84224;BME280;74353;51.208;0.304;2024-01-30T02:42:21;102032.65;;;11.94;49.03
84224;BME280;74353;51.208;0.304;2024-01-30T02:44:49;102029.28;;;11.64;49.09
84224;BME280;74353;51.208;0.304;2024-01-30T02:47:14;102037.94;;;12.00;48.75
84224;BME280;74353;51.208;0.304;2024-01-30T02:49:40;102043.56;;;11.73;48.84
84224;BME280;74353;51.208;0.304;2024-01-30T02:52:05;102049.23;;;11.70;48.84
84224;BME280;74353;51.208;0.304;2024-01-30T02:54:34;102049.60;;;11.64;48.86
84224;BME280;74353;51.208;0.304;2024-01-30T02:57:03;102049.67;;;11.94;48.76
84224;BME280;74353;51.208;0.304;2024-01-30T02:59:30;102052.68;;;12.05;48.50
84224;BME280;74353;51.208;0.304;2024-01-30T03:01:56;102051.11;;;11.94;48.63
84224;BME280;74353;51.208;0.304;2024-01-30T03:04:23;102057.11;;;11.91;48.68
84224;BME280;74353;51.208;0.304;2024-01-30T03:06:49;102057.72;;;11.66;49.10
84224;BME280;74353;51.208;0.304;2024-01-30T03:09:16;102061.41;;;11.71;49.03
84224;BME280;74353;51.208;0.304;2024-01-30T03:11:40;102055.73;;;11.68;49.08
84224;BME280;74353;51.208;0.304;2024-01-30T03:14:05;102058.96;;;11.90;48.70
84224;BME280;74353;51.208;0.304;2024-01-30T03:16:30;102053.52;;;11.60;48.81
84224;BME280;74353;51.208;0.304;2024-01-30T03:18:59;102056.19;;;11.57;48.82
84224;BME280;74353;51.208;0.304;2024-01-30T03:21:25;102052.92;;;11.82;48.83
84224;BME280;74353;51.208;0.304;2024-01-30T03:23:53;102056.40;;;11.85;48.77
84224;BME280;74353;51.208;0.304;2024-01-30T03:26:19;102043.03;;;11.54;49.20
84224;BME280;74353;51.208;0.304;2024-01-30T03:28:46;102057.11;;;11.59;49.03
84224;BME280;74353;51.208;0.304;2024-01-30T03:31:15;102054.79;;;11.67;48.81
84224;BME280;74353;51.208;0.304;2024-01-30T03:33:37;102050.97;;;11.61;48.89
84224;BME280;74353;51.208;0.304;2024-01-30T03:36:05;102051.12;;;11.59;48.93
84224;BME280;74353;51.208;0.304;2024-01-30T03:38:31;102041.38;;;11.63;48.85
84224;BME280;74353;51.208;0.304;2024-01-30T03:40:58;102043.68;;;11.72;48.64
84224;BME280;74353;51.208;0.304;2024-01-30T03:43:24;102044.81;;;11.53;49.01
84224;BME280;74353;51.208;0.304;2024-01-30T03:45:49;102048.33;;;11.51;49.04
84224;BME280;74353;51.208;0.304;2024-01-30T03:48:20;102050.23;;;11.44;49.09
84224;BME280;74353;51.208;0.304;2024-01-30T03:50:40;102045.57;;;11.49;49.02
84224;BME280;74353;51.208;0.304;2024-01-30T03:53:07;102048.79;;;11.48;49.04
84224;BME280;74353;51.208;0.304;2024-01-30T03:55:33;102052.55;;;11.46;49.08
84224;BME280;74353;51.208;0.304;2024-01-30T03:58:00;102051.07;;;11.40;49.16
84224;BME280;74353;51.208;0.304;2024-01-30T04:00:27;102054.82;;;11.43;49.17
84224;BME280;74353;51.208;0.304;2024-01-30T04:02:56;102054.67;;;11.37;49.19
84224;BME280;74353;51.208;0.304;2024-01-30T04:05:21;102061.39;;;11.40;49.06
84224;BME280;74353;51.208;0.304;2024-01-30T04:07:46;102048.33;;;11.38;49.08
84224;BME280;74353;51.208;0.304;2024-01-30T04:10:12;102055.89;;;11.07;49.15
84224;BME280;74353;51.208;0.304;2024-01-30T04:12:38;102057.13;;;11.40;49.03
84224;BME280;74353;51.208;0.304;2024-01-30T04:15:04;102055.36;;;11.39;49.03
84224;BME280;74353;51.208;0.304;2024-01-30T04:17:30;102049.69;;;11.22;49.29
84224;BME280;74353;51.208;0.304;2024-01-30T04:19:58;102049.05;;;11.24;49.29
84224;BME280;74353;51.208;0.304;2024-01-30T04:22:23;102051.96;;;11.19;49.32
84224;BME280;74353;51.208;0.304;2024-01-30T04:24:48;102052.62;;;11.06;49.50
84224;BME280;74353;51.208;0.304;2024-01-30T04:27:13;102053.09;;;11.12;49.38
84224;BME280;74353;51.208;0.304;2024-01-30T04:29:38;102044.62;;;11.41;49.22
84224;BME280;74353;51.208;0.304;2024-01-30T04:32:06;102049.65;;;11.25;49.06
84224;BME280;74353;51.208;0.304;2024-01-30T04:34:30;102055.09;;;11.25;49.01
84224;BME280;74353;51.208;0.304;2024-01-30T04:36:56;102064.54;;;11.07;49.31
84224;BME280;74353;51.208;0.304;2024-01-30T04:39:22;102066.21;;;11.11;49.22
84224;BME280;74353;51.208;0.304;2024-01-30T04:41:49;102065.42;;;11.17;49.11
84224;BME280;74353;51.208;0.304;2024-01-30T04:44:15;102064.34;;;11.08;49.28
84224;BME280;74353;51.208;0.304;2024-01-30T04:46:40;102067.25;;;10.89;49.68
84224;BME280;74353;51.208;0.304;2024-01-30T04:49:06;102074.38;;;11.22;49.09
84224;BME280;74353;51.208;0.304;2024-01-30T04:51:33;102073.29;;;10.97;49.52
84224;BME280;74353;51.208;0.304;2024-01-30T04:53:58;102072.33;;;10.88;49.63
84224;BME280;74353;51.208;0.304;2024-01-30T04:56:26;102071.75;;;11.10;49.22
84224;BME280;74353;51.208;0.304;2024-01-30T04:58:52;102074.18;;;10.98;49.47
84224;BME280;74353;51.208;0.304;2024-01-30T05:01:19;102077.53;;;11.04;49.31
84224;BME280;74353;51.208;0.304;2024-01-30T05:03:44;102066.87;;;10.88;49.53
84224;BME280;74353;51.208;0.304;2024-01-30T05:06:09;102069.95;;;11.12;49.60
84224;BME280;74353;51.208;0.304;2024-01-30T05:08:34;102075.44;;;11.04;49.28
84224;BME280;74353;51.208;0.304;2024-01-30T05:11:00;102076.63;;;11.04;49.29
84224;BME280;74353;51.208;0.304;2024-01-30T05:13:25;102078.08;;;11.08;49.18
84224;BME280;74353;51.208;0.304;2024-01-30T05:15:51;102079.76;;;10.89;49.49
84224;BME280;74353;51.208;0.304;2024-01-30T05:18:16;102086.01;;;10.97;49.31
84224;BME280;74353;51.208;0.304;2024-01-30T05:20:42;102095.14;;;10.86;49.44
84224;BME280;74353;51.208;0.304;2024-01-30T05:23:11;102094.97;;;10.87;49.44
84224;BME280;74353;51.208;0.304;2024-01-30T05:25:37;102093.73;;;10.82;49.48
84224;BME280;74353;51.208;0.304;2024-01-30T05:28:03;102094.97;;;10.79;49.49
84224;BME280;74353;51.208;0.304;2024-01-30T05:30:30;102098.79;;;10.91;49.70
84224;BME280;74353;51.208;0.304;2024-01-30T05:32:55;102100.01;;;11.05;49.44
84224;BME280;74353;51.208;0.304;2024-01-30T05:35:21;102100.90;;;10.78;49.50
84224;BME280;74353;51.208;0.304;2024-01-30T05:37:48;102093.38;;;11.08;49.36
84224;BME280;74353;51.208;0.304;2024-01-30T05:40:14;102098.60;;;11.04;48.96
84224;BME280;74353;51.208;0.304;2024-01-30T05:42:41;102108.37;;;11.37;49.21
84224;BME280;74353;51.208;0.304;2024-01-30T05:45:07;102105.97;;;10.98;49.13
84224;BME280;74353;51.208;0.304;2024-01-30T05:47:34;102110.23;;;11.12;49.69
84224;BME280;74353;51.208;0.304;2024-01-30T05:49:59;102109.48;;;10.95;49.20
84224;BME280;74353;51.208;0.304;2024-01-30T05:52:24;102106.34;;;10.89;49.30
84224;BME280;74353;51.208;0.304;2024-01-30T05:54:50;102110.49;;;11.15;49.29
84224;BME280;74353;51.208;0.304;2024-01-30T05:57:17;102112.38;;;11.15;49.30
84224;BME280;74353;51.208;0.304;2024-01-30T05:59:43;102119.24;;;11.14;49.36
84224;BME280;74353;51.208;0.304;2024-01-30T06:02:11;102117.56;;;10.83;49.52
84224;BME280;74353;51.208;0.304;2024-01-30T06:04:36;102121.75;;;10.65;49.80
84224;BME280;74353;51.208;0.304;2024-01-30T06:07:01;102129.33;;;10.94;49.70
84224;BME280;74353;51.208;0.304;2024-01-30T06:09:27;102132.76;;;10.77;49.61
84224;BME280;74353;51.208;0.304;2024-01-30T06:11:52;102132.83;;;10.89;49.75
84224;BME280;74353;51.208;0.304;2024-01-30T06:14:20;102133.54;;;10.76;49.51
84224;BME280;74353;51.208;0.304;2024-01-30T06:16:46;102137.75;;;10.69;49.63
84224;BME280;74353;51.208;0.304;2024-01-30T06:19:11;102145.75;;;10.95;49.47
84224;BME280;74353;51.208;0.304;2024-01-30T06:21:39;102148.70;;;10.76;49.30
84224;BME280;74353;51.208;0.304;2024-01-30T06:24:07;102157.94;;;10.73;49.25
84224;BME280;74353;51.208;0.304;2024-01-30T06:26:33;102163.82;;;11.00;49.14
84224;BME280;74353;51.208;0.304;2024-01-30T06:28:58;102173.45;;;11.07;49.42
84224;BME280;74353;51.208;0.304;2024-01-30T06:31:23;102166.05;;;10.59;49.18
84224;BME280;74353;51.208;0.304;2024-01-30T06:33:50;102160.27;;;11.25;48.73
84224;BME280;74353;51.208;0.304;2024-01-30T06:36:14;102159.38;;;11.13;48.82
84224;BME280;74353;51.208;0.304;2024-01-30T06:38:41;102161.60;;;11.11;48.70
84224;BME280;74353;51.208;0.304;2024-01-30T06:41:07;102174.99;;;11.25;48.37
84224;BME280;74353;51.208;0.304;2024-01-30T06:43:34;102179.78;;;10.79;48.57
84224;BME280;74353;51.208;0.304;2024-01-30T06:46:00;102179.91;;;10.85;48.31
84224;BME280;74353;51.208;0.304;2024-01-30T06:48:25;102181.67;;;11.26;47.86
84224;BME280;74353;51.208;0.304;2024-01-30T06:50:53;102191.32;;;11.12;47.96
84224;BME280;74353;51.208;0.304;2024-01-30T06:53:18;102196.83;;;11.06;47.92
84224;BME280;74353;51.208;0.304;2024-01-30T06:55:43;102207.59;;;10.46;48.00
84224;BME280;74353;51.208;0.304;2024-01-30T06:58:08;102227.03;;;10.69;47.91
84224;BME280;74353;51.208;0.304;2024-01-30T07:00:36;102235.01;;;10.77;47.60
84224;BME280;74353;51.208;0.304;2024-01-30T07:03:03;102237.58;;;10.59;47.35
84224;BME280;74353;51.208;0.304;2024-01-30T07:05:31;102250.00;;;10.75;47.00
84224;BME280;74353;51.208;0.304;2024-01-30T07:07:58;102255.06;;;10.55;46.72
84224;BME280;74353;51.208;0.304;2024-01-30T07:10:24;102268.29;;;10.63;46.45
84224;BME280;74353;51.208;0.304;2024-01-30T07:12:51;102267.81;;;10.35;46.36
84224;BME280;74353;51.208;0.304;2024-01-30T07:15:17;102272.47;;;10.41;46.44
84224;BME280;74353;51.208;0.304;2024-01-30T07:17:45;102271.15;;;10.69;46.18
84224;BME280;74353;51.208;0.304;2024-01-30T07:20:12;102277.97;;;10.13;46.30
84224;BME280;74353;51.208;0.304;2024-01-30T07:22:38;102288.05;;;10.66;46.09
84224;BME280;74353;51.208;0.304;2024-01-30T07:25:06;102294.66;;;10.58;46.13
84224;BME280;74353;51.208;0.304;2024-01-30T07:27:30;102296.08;;;10.26;46.15
84224;BME280;74353;51.208;0.304;2024-01-30T07:29:56;102305.83;;;10.41;45.99
84224;BME280;74353;51.208;0.304;2024-01-30T07:32:21;102310.92;;;10.24;46.07
84224;BME280;74353;51.208;0.304;2024-01-30T07:34:48;102315.24;;;10.12;46.28
84224;BME280;74353;51.208;0.304;2024-01-30T07:37:16;102324.13;;;10.27;45.91
84224;BME280;74353;51.208;0.304;2024-01-30T07:39:42;102333.52;;;9.86;46.08
84224;BME280;74353;51.208;0.304;2024-01-30T07:42:08;102343.49;;;10.17;45.95
84224;BME280;74353;51.208;0.304;2024-01-30T07:44:34;102355.24;;;10.37;46.00
84224;BME280;74353;51.208;0.304;2024-01-30T07:47:00;102358.25;;;10.41;45.99
84224;BME280;74353;51.208;0.304;2024-01-30T07:49:25;102353.84;;;10.06;46.23
84224;BME280;74353;51.208;0.304;2024-01-30T07:51:52;102358.19;;;10.04;46.15
84224;BME280;74353;51.208;0.304;2024-01-30T07:54:19;102352.56;;;10.23;46.12
84224;BME280;74353;51.208;0.304;2024-01-30T07:56:45;102355.20;;;10.14;46.15
84224;BME280;74353;51.208;0.304;2024-01-30T07:59:10;102364.98;;;10.07;46.20
84224;BME280;74353;51.208;0.304;2024-01-30T08:01:35;102367.10;;;10.10;46.13
84224;BME280;74353;51.208;0.304;2024-01-30T08:04:01;102369.38;;;10.27;45.84
84224;BME280;74353;51.208;0.304;2024-01-30T08:06:27;102373.02;;;10.05;45.73
84224;BME280;74353;51.208;0.304;2024-01-30T08:08:53;102376.43;;;10.25;46.18
84224;BME280;74353;51.208;0.304;2024-01-30T08:11:20;102378.02;;;10.21;45.71
84224;BME280;74353;51.208;0.304;2024-01-30T08:13:44;102385.08;;;10.11;45.89
84224;BME280;74353;51.208;0.304;2024-01-30T08:16:09;102392.68;;;9.80;45.96
84224;BME280;74353;51.208;0.304;2024-01-30T08:18:36;102400.99;;;10.05;45.94
84224;BME280;74353;51.208;0.304;2024-01-30T08:21:01;102410.38;;;10.00;45.99
84224;BME280;74353;51.208;0.304;2024-01-30T08:23:27;102414.83;;;10.23;46.04
84224;BME280;74353;51.208;0.304;2024-01-30T08:25:52;102420.91;;;10.43;45.67
84224;BME280;74353;51.208;0.304;2024-01-30T08:28:18;102428.61;;;10.10;46.23
84224;BME280;74353;51.208;0.304;2024-01-30T08:30:48;102428.63;;;10.24;46.18
84224;BME280;74353;51.208;0.304;2024-01-30T08:33:16;102431.92;;;10.31;46.15
84224;BME280;74353;51.208;0.304;2024-01-30T08:35:41;102431.07;;;10.06;46.34
84224;BME280;74353;51.208;0.304;2024-01-30T08:38:08;102434.01;;;9.84;46.72
84224;BME280;74353;51.208;0.304;2024-01-30T08:40:34;102436.39;;;10.25;46.54
84224;BME280;74353;51.208;0.304;2024-01-30T08:43:05;102448.12;;;9.70;46.63
84224;BME280;74353;51.208;0.304;2024-01-30T08:45:30;102444.31;;;9.85;46.68
84224;BME280;74353;51.208;0.304;2024-01-30T08:47:55;102450.98;;;9.97;46.56
84224;BME280;74353;51.208;0.304;2024-01-30T08:50:20;102452.30;;;10.01;46.46
84224;BME280;74353;51.208;0.304;2024-01-30T08:52:49;102447.59;;;9.80;46.35
84224;BME280;74353;51.208;0.304;2024-01-30T08:55:16;102455.42;;;10.04;46.87
84224;BME280;74353;51.208;0.304;2024-01-30T08:57:44;102458.08;;;10.08;46.66
84224;BME280;74353;51.208;0.304;2024-01-30T09:00:10;102461.65;;;9.86;46.52
84224;BME280;74353;51.208;0.304;2024-01-30T09:02:35;102458.93;;;9.92;46.48
84224;BME280;74353;51.208;0.304;2024-01-30T09:05:00;102468.11;;;9.75;46.62
84224;BME280;74353;51.208;0.304;2024-01-30T09:07:26;102472.31;;;9.93;46.20
84224;BME280;74353;51.208;0.304;2024-01-30T09:09:53;102478.36;;;9.84;46.25
84224;BME280;74353;51.208;0.304;2024-01-30T09:12:19;102481.36;;;9.87;46.12
84224;BME280;74353;51.208;0.304;2024-01-30T09:14:45;102492.47;;;10.16;45.84
84224;BME280;74353;51.208;0.304;2024-01-30T09:17:12;102491.38;;;10.19;45.76
84224;BME280;74353;51.208;0.304;2024-01-30T09:19:40;102492.37;;;10.10;45.07
84224;BME280;74353;51.208;0.304;2024-01-30T09:22:06;102501.20;;;9.96;45.21
84224;BME280;74353;51.208;0.304;2024-01-30T09:24:32;102504.24;;;9.96;45.26
84224;BME280;74353;51.208;0.304;2024-01-30T09:26:58;102506.92;;;9.91;45.63
84224;BME280;74353;51.208;0.304;2024-01-30T09:29:23;102507.01;;;10.11;45.14
84224;BME280;74353;51.208;0.304;2024-01-30T09:31:49;102514.37;;;9.93;45.15
84224;BME280;74353;51.208;0.304;2024-01-30T09:34:15;102511.57;;;10.14;45.07
84224;BME280;74353;51.208;0.304;2024-01-30T09:36:43;102508.37;;;10.22;45.09
84224;BME280;74353;51.208;0.304;2024-01-30T09:39:09;102516.86;;;10.21;44.94
84224;BME280;74353;51.208;0.304;2024-01-30T09:41:51;102519.57;;;9.96;45.28
84224;BME280;74353;51.208;0.304;2024-01-30T09:44:02;102523.61;;;9.84;45.01
84224;BME280;74353;51.208;0.304;2024-01-30T09:46:27;102528.86;;;10.19;44.93
84224;BME280;74353;51.208;0.304;2024-01-30T09:48:57;102527.86;;;9.87;44.98
84224;BME280;74353;51.208;0.304;2024-01-30T09:51:17;102538.96;;;9.84;45.21
84224;BME280;74353;51.208;0.304;2024-01-30T09:53:43;102540.31;;;9.91;44.92
84224;BME280;74353;51.208;0.304;2024-01-30T09:56:08;102545.78;;;9.93;44.99
84224;BME280;74353;51.208;0.304;2024-01-30T09:58:36;102548.42;;;10.00;45.33
84224;BME280;74353;51.208;0.304;2024-01-30T10:01:04;102553.30;;;10.06;45.26
84224;BME280;74353;51.208;0.304;2024-01-30T10:03:29;102562.67;;;9.99;45.21
84224;BME280;74353;51.208;0.304;2024-01-30T10:05:55;102565.00;;;10.20;44.87
84224;BME280;74353;51.208;0.304;2024-01-30T10:08:22;102570.80;;;9.85;45.13
84224;BME280;74353;51.208;0.304;2024-01-30T10:10:48;102575.77;;;9.59;45.09
84224;BME280;74353;51.208;0.304;2024-01-30T10:13:13;102577.12;;;9.99;44.80
84224;BME280;74353;51.208;0.304;2024-01-30T10:15:39;102577.90;;;9.89;44.74
84224;BME280;74353;51.208;0.304;2024-01-30T10:18:06;102585.71;;;10.11;44.67
84224;BME280;74353;51.208;0.304;2024-01-30T10:20:34;102588.38;;;9.89;44.45
84224;BME280;74353;51.208;0.304;2024-01-30T10:22:59;102591.75;;;10.33;44.20
84224;BME280;74353;51.208;0.304;2024-01-30T10:25:25;102593.06;;;10.26;44.39
84224;BME280;74353;51.208;0.304;2024-01-30T10:27:53;102597.94;;;9.95;44.33
84224;BME280;74353;51.208;0.304;2024-01-30T10:30:17;102605.06;;;10.04;44.32
84224;BME280;74353;51.208;0.304;2024-01-30T10:32:43;102605.71;;;10.21;44.20
84224;BME280;74353;51.208;0.304;2024-01-30T10:35:11;102608.80;;;10.02;44.30
84224;BME280;74353;51.208;0.304;2024-01-30T10:37:39;102604.43;;;10.04;44.16
84224;BME280;74353;51.208;0.304;2024-01-30T10:40:06;102607.45;;;10.16;43.77
84224;BME280;74353;51.208;0.304;2024-01-30T10:42:32;102615.86;;;10.04;44.23
84224;BME280;74353;51.208;0.304;2024-01-30T10:45:02;102623.68;;;9.93;44.14
84224;BME280;74353;51.208;0.304;2024-01-30T10:47:26;102629.29;;;9.84;44.38
84224;BME280;74353;51.208;0.304;2024-01-30T10:49:49;102629.55;;;10.02;44.20
84224;BME280;74353;51.208;0.304;2024-01-30T10:52:14;102628.82;;;9.87;44.37
84224;BME280;74353;51.208;0.304;2024-01-30T10:54:40;102636.18;;;9.92;44.15
84224;BME280;74353;51.208;0.304;2024-01-30T10:57:06;102640.65;;;9.96;44.11
84224;BME280;74353;51.208;0.304;2024-01-30T10:59:31;102652.73;;;10.10;43.87
84224;BME280;74353;51.208;0.304;2024-01-30T11:02:02;102656.06;;;10.04;44.16
84224;BME280;74353;51.208;0.304;2024-01-30T11:04:27;102661.48;;;10.40;43.80
84224;BME280;74353;51.208;0.304;2024-01-30T11:06:54;102662.73;;;10.14;43.75
84224;BME280;74353;51.208;0.304;2024-01-30T11:09:19;102667.01;;;9.94;44.00
84224;BME280;74353;51.208;0.304;2024-01-30T11:11:50;102665.25;;;10.21;43.96
84224;BME280;74353;51.208;0.304;2024-01-30T11:14:13;102667.03;;;10.14;43.13
84224;BME280;74353;51.208;0.304;2024-01-30T11:16:40;102669.44;;;10.33;43.01
84224;BME280;74353;51.208;0.304;2024-01-30T11:19:04;102669.94;;;10.29;43.04
84224;BME280;74353;51.208;0.304;2024-01-30T11:21:30;102671.59;;;10.17;43.09
84224;BME280;74353;51.208;0.304;2024-01-30T11:23:58;102670.51;;;10.22;43.29
84224;BME280;74353;51.208;0.304;2024-01-30T11:26:27;102671.11;;;10.06;43.54
84224;BME280;74353;51.208;0.304;2024-01-30T11:28:52;102671.08;;;10.01;43.91
84224;BME280;74353;51.208;0.304;2024-01-30T11:31:19;102672.14;;;10.19;44.10
84224;BME280;74353;51.208;0.304;2024-01-30T11:33:42;102681.22;;;10.13;43.69
84224;BME280;74353;51.208;0.304;2024-01-30T11:36:08;102676.88;;;10.20;43.42
84224;BME280;74353;51.208;0.304;2024-01-30T11:38:35;102679.08;;;10.09;43.57
84224;BME280;74353;51.208;0.304;2024-01-30T11:41:03;102682.29;;;10.28;43.72
84224;BME280;74353;51.208;0.304;2024-01-30T11:43:28;102680.71;;;10.27;43.23
84224;BME280;74353;51.208;0.304;2024-01-30T11:45:54;102684.85;;;10.11;43.52
84224;BME280;74353;51.208;0.304;2024-01-30T11:48:19;102686.28;;;10.15;43.51
84224;BME280;74353;51.208;0.304;2024-01-30T11:50:45;102685.61;;;10.09;43.33
84224;BME280;74353;51.208;0.304;2024-01-30T11:53:13;102685.46;;;10.35;43.22
84224;BME280;74353;51.208;0.304;2024-01-30T11:55:38;102688.76;;;10.25;43.43
84224;BME280;74353;51.208;0.304;2024-01-30T11:58:04;102698.05;;;10.31;43.38
84224;BME280;74353;51.208;0.304;2024-01-30T12:00:30;102705.12;;;10.31;43.37
84224;BME280;74353;51.208;0.304;2024-01-30T12:02:58;102703.98;;;10.30;43.44
84224;BME280;74353;51.208;0.304;2024-01-30T12:05:25;102705.63;;;10.40;43.54
84224;BME280;74353;51.208;0.304;2024-01-30T12:07:50;102707.82;;;10.55;43.64
84224;BME280;74353;51.208;0.304;2024-01-30T12:10:17;102708.37;;;10.44;43.60
84224;BME280;74353;51.208;0.304;2024-01-30T12:12:44;102713.89;;;10.33;43.49
84224;BME280;74353;51.208;0.304;2024-01-30T12:15:09;102718.82;;;9.97;43.68
84224;BME280;74353;51.208;0.304;2024-01-30T12:17:34;102722.93;;;10.21;43.54
84224;BME280;74353;51.208;0.304;2024-01-30T12:20:10;102721.32;;;10.34;43.24
84224;BME280;74353;51.208;0.304;2024-01-30T12:22:37;102727.52;;;10.24;43.41
84224;BME280;74353;51.208;0.304;2024-01-30T12:25:05;102725.98;;;10.29;43.31
84224;BME280;74353;51.208;0.304;2024-01-30T12:27:30;102725.97;;;10.47;42.98
84224;BME280;74353;51.208;0.304;2024-01-30T12:29:57;102724.07;;;10.33;43.33
84224;BME280;74353;51.208;0.304;2024-01-30T12:32:23;102723.48;;;10.41;42.76
84224;BME280;74353;51.208;0.304;2024-01-30T12:34:50;102723.01;;;10.38;42.55
84224;BME280;74353;51.208;0.304;2024-01-30T12:37:18;102727.94;;;10.39;42.53
84224;BME280;74353;51.208;0.304;2024-01-30T12:39:50;102724.98;;;10.33;42.54
84224;BME280;74353;51.208;0.304;2024-01-30T12:42:19;102728.73;;;10.35;42.56
84224;BME280;74353;51.208;0.304;2024-01-30T12:44:43;102732.11;;;10.19;42.73